sensor_id;sensor_type;location;lat;lon;timestamp;temperature;humidity
569;DHT22;269;48.884;9.192;2023-04-19T00:01:37;10.40;99.90
569;DHT22;269;48.884;9.192;2023-04-19T00:04:05;10.30;99.90
569;DHT22;269;48.884;9.192;2023-04-19T00:06:33;10.40;99.90
569;DHT22;269;48.884;9.192;2023-04-19T00:09:01;10.40;99.90
569;DHT22;269;48.884;9.192;2023-04-19T00:11:28;10.40;99.90
569;DHT22;269;48.884;9.192;2023-04-19T00:13:55;10.40;99.90
569;DHT22;269;48.884;9.192;2023-04-19T00:16:24;10.40;99.90
569;DHT22;269;48.884;9.192;2023-04-19T00:18:51;10.40;99.90
569;DHT22;269;48.884;9.192;2023-04-19T00:21:18;10.30;99.90
569;DHT22;269;48.884;9.192;2023-04-19T00:23:46;10.30;99.90
569;DHT22;269;48.884;9.192;2023-04-19T00:26:13;10.60;99.90
569;DHT22;269;48.884;9.192;2023-04-19T00:28:41;10.30;99.90
569;DHT22;269;48.884;9.192;2023-04-19T00:31:08;10.40;99.90
569;DHT22;269;48.884;9.192;2023-04-19T00:33:37;10.40;99.90
569;DHT22;269;48.884;9.192;2023-04-19T00:36:04;10.40;99.90
569;DHT22;269;48.884;9.192;2023-04-19T00:38:32;10.40;99.90
569;DHT22;269;48.884;9.192;2023-04-19T00:40:59;10.40;99.90
569;DHT22;269;48.884;9.192;2023-04-19T00:43:26;10.40;99.90
569;DHT22;269;48.884;9.192;2023-04-19T00:45:53;10.80;99.90
569;DHT22;269;48.884;9.192;2023-04-19T00:48:20;10.50;99.90
569;DHT22;269;48.884;9.192;2023-04-19T00:50:49;10.50;99.90
569;DHT22;269;48.884;9.192;2023-04-19T00:53:17;10.60;99.90
569;DHT22;269;48.884;9.192;2023-04-19T00:55:44;10.60;99.90
569;DHT22;269;48.884;9.192;2023-04-19T00:58:12;10.60;99.90
569;DHT22;269;48.884;9.192;2023-04-19T01:00:39;10.60;99.90
569;DHT22;269;48.884;9.192;2023-04-19T01:03:06;10.50;99.90
569;DHT22;269;48.884;9.192;2023-04-19T01:05:33;10.60;99.90
569;DHT22;269;48.884;9.192;2023-04-19T01:08:02;10.60;99.90
569;DHT22;269;48.884;9.192;2023-04-19T01:10:29;10.60;99.90
569;DHT22;269;48.884;9.192;2023-04-19T01:12:56;10.90;99.90
569;DHT22;269;48.884;9.192;2023-04-19T01:15:24;10.60;99.90
569;DHT22;269;48.884;9.192;2023-04-19T01:17:51;10.80;99.90
569;DHT22;269;48.884;9.192;2023-04-19T01:20:20;10.60;99.90
569;DHT22;269;48.884;9.192;2023-04-19T01:22:49;10.60;99.90
569;DHT22;269;48.884;9.192;2023-04-19T01:25:16;10.60;99.90
569;DHT22;269;48.884;9.192;2023-04-19T01:27:43;10.60;99.90
569;DHT22;269;48.884;9.192;2023-04-19T01:30:11;10.50;99.90
569;DHT22;269;48.884;9.192;2023-04-19T01:32:38;10.50;99.90
569;DHT22;269;48.884;9.192;2023-04-19T01:35:06;10.50;99.90
569;DHT22;269;48.884;9.192;2023-04-19T01:37:36;10.50;99.90
569;DHT22;269;48.884;9.192;2023-04-19T01:40:05;10.50;99.90
569;DHT22;269;48.884;9.192;2023-04-19T01:42:32;10.50;99.90
569;DHT22;269;48.884;9.192;2023-04-19T01:44:59;10.50;99.90
569;DHT22;269;48.884;9.192;2023-04-19T01:47:26;10.50;99.90
569;DHT22;269;48.884;9.192;2023-04-19T01:49:54;10.40;99.90
569;DHT22;269;48.884;9.192;2023-04-19T01:52:21;10.40;99.90
569;DHT22;269;48.884;9.192;2023-04-19T01:54:48;10.40;99.90
569;DHT22;269;48.884;9.192;2023-04-19T01:57:16;10.40;99.90
569;DHT22;269;48.884;9.192;2023-04-19T01:59:44;10.40;99.90
569;DHT22;269;48.884;9.192;2023-04-19T02:02:11;10.40;99.90
569;DHT22;269;48.884;9.192;2023-04-19T02:04:38;10.40;99.90
569;DHT22;269;48.884;9.192;2023-04-19T02:07:06;10.30;99.90
569;DHT22;269;48.884;9.192;2023-04-19T02:09:34;10.30;99.90
569;DHT22;269;48.884;9.192;2023-04-19T02:12:02;10.30;99.90
569;DHT22;269;48.884;9.192;2023-04-19T02:14:31;10.30;99.90
569;DHT22;269;48.884;9.192;2023-04-19T02:16:58;10.30;99.90
569;DHT22;269;48.884;9.192;2023-04-19T02:19:25;10.30;99.90
569;DHT22;269;48.884;9.192;2023-04-19T02:21:52;10.30;99.90
569;DHT22;269;48.884;9.192;2023-04-19T02:24:22;10.30;99.90
569;DHT22;269;48.884;9.192;2023-04-19T02:26:49;10.30;99.90
569;DHT22;269;48.884;9.192;2023-04-19T02:29:17;10.30;99.90
569;DHT22;269;48.884;9.192;2023-04-19T02:31:46;10.30;99.90
569;DHT22;269;48.884;9.192;2023-04-19T02:34:13;10.60;99.90
569;DHT22;269;48.884;9.192;2023-04-19T02:36:40;10.30;99.90
569;DHT22;269;48.884;9.192;2023-04-19T02:39:07;10.30;99.90
569;DHT22;269;48.884;9.192;2023-04-19T02:41:34;10.30;99.90
569;DHT22;269;48.884;9.192;2023-04-19T02:44:01;10.30;99.90
569;DHT22;269;48.884;9.192;2023-04-19T02:46:28;10.30;99.90
569;DHT22;269;48.884;9.192;2023-04-19T02:48:59;10.30;99.90
569;DHT22;269;48.884;9.192;2023-04-19T02:51:27;10.30;99.90
569;DHT22;269;48.884;9.192;2023-04-19T02:53:54;10.30;99.90
569;DHT22;269;48.884;9.192;2023-04-19T02:56:21;10.40;99.90
569;DHT22;269;48.884;9.192;2023-04-19T02:58:48;10.30;99.90
569;DHT22;269;48.884;9.192;2023-04-19T03:01:15;10.30;99.90
569;DHT22;269;48.884;9.192;2023-04-19T03:03:42;10.30;99.90
569;DHT22;269;48.884;9.192;2023-04-19T03:06:11;10.40;99.90
569;DHT22;269;48.884;9.192;2023-04-19T03:08:38;10.20;99.90
569;DHT22;269;48.884;9.192;2023-04-19T03:11:05;10.20;99.90
569;DHT22;269;48.884;9.192;2023-04-19T03:13:32;10.20;99.90
569;DHT22;269;48.884;9.192;2023-04-19T03:15:59;10.20;99.90
569;DHT22;269;48.884;9.192;2023-04-19T03:18:26;10.10;99.90
569;DHT22;269;48.884;9.192;2023-04-19T03:20:54;10.20;99.90
569;DHT22;269;48.884;9.192;2023-04-19T03:23:24;10.20;99.90
569;DHT22;269;48.884;9.192;2023-04-19T03:25:51;10.20;99.90
569;DHT22;269;48.884;9.192;2023-04-19T03:28:19;10.20;99.90
569;DHT22;269;48.884;9.192;2023-04-19T03:30:46;10.40;99.90
569;DHT22;269;48.884;9.192;2023-04-19T03:33:13;10.50;99.90
569;DHT22;269;48.884;9.192;2023-04-19T03:35:42;10.20;99.90
569;DHT22;269;48.884;9.192;2023-04-19T03:38:09;10.50;99.90
569;DHT22;269;48.884;9.192;2023-04-19T03:40:37;10.20;99.90
569;DHT22;269;48.884;9.192;2023-04-19T03:43:05;10.50;99.90
569;DHT22;269;48.884;9.192;2023-04-19T03:45:32;10.20;99.90
569;DHT22;269;48.884;9.192;2023-04-19T03:47:59;10.20;99.90
569;DHT22;269;48.884;9.192;2023-04-19T03:50:27;10.20;99.90
569;DHT22;269;48.884;9.192;2023-04-19T03:52:53;10.20;99.90
569;DHT22;269;48.884;9.192;2023-04-19T03:55:20;10.40;99.90
569;DHT22;269;48.884;9.192;2023-04-19T03:57:49;10.30;99.90
569;DHT22;269;48.884;9.192;2023-04-19T04:00:16;10.20;99.90
569;DHT22;269;48.884;9.192;2023-04-19T04:02:43;10.10;99.90
569;DHT22;269;48.884;9.192;2023-04-19T04:05:11;10.10;99.90
569;DHT22;269;48.884;9.192;2023-04-19T04:07:38;10.10;99.90
569;DHT22;269;48.884;9.192;2023-04-19T04:10:06;10.10;99.90
569;DHT22;269;48.884;9.192;2023-04-19T04:12:33;10.10;99.90
569;DHT22;269;48.884;9.192;2023-04-19T04:15:02;10.10;99.90
569;DHT22;269;48.884;9.192;2023-04-19T04:17:29;10.10;99.90
569;DHT22;269;48.884;9.192;2023-04-19T04:19:57;10.00;99.90
569;DHT22;269;48.884;9.192;2023-04-19T04:22:24;10.00;99.90
569;DHT22;269;48.884;9.192;2023-04-19T04:24:51;10.00;99.90
569;DHT22;269;48.884;9.192;2023-04-19T04:27:19;10.00;99.90
569;DHT22;269;48.884;9.192;2023-04-19T04:29:46;10.00;99.90
569;DHT22;269;48.884;9.192;2023-04-19T04:32:15;9.90;99.90
569;DHT22;269;48.884;9.192;2023-04-19T04:34:43;9.90;99.90
569;DHT22;269;48.884;9.192;2023-04-19T04:37:10;9.80;99.90
569;DHT22;269;48.884;9.192;2023-04-19T04:39:38;9.80;99.90
569;DHT22;269;48.884;9.192;2023-04-19T04:42:05;9.90;99.90
569;DHT22;269;48.884;9.192;2023-04-19T04:44:33;10.00;99.90
569;DHT22;269;48.884;9.192;2023-04-19T04:47:01;10.10;99.90
569;DHT22;269;48.884;9.192;2023-04-19T04:49:30;10.20;99.90
569;DHT22;269;48.884;9.192;2023-04-19T04:51:57;10.20;99.90
569;DHT22;269;48.884;9.192;2023-04-19T04:54:24;10.20;99.90
569;DHT22;269;48.884;9.192;2023-04-19T04:56:51;10.10;99.90
569;DHT22;269;48.884;9.192;2023-04-19T04:59:18;10.10;99.90
569;DHT22;269;48.884;9.192;2023-04-19T05:01:45;10.10;99.90
569;DHT22;269;48.884;9.192;2023-04-19T05:04:12;10.10;99.90
569;DHT22;269;48.884;9.192;2023-04-19T05:06:40;10.00;99.90
569;DHT22;269;48.884;9.192;2023-04-19T05:09:09;10.00;99.90
569;DHT22;269;48.884;9.192;2023-04-19T05:11:36;10.10;99.90
569;DHT22;269;48.884;9.192;2023-04-19T05:14:03;10.10;99.90
569;DHT22;269;48.884;9.192;2023-04-19T05:16:31;10.10;99.90
569;DHT22;269;48.884;9.192;2023-04-19T05:18:58;10.10;99.90
569;DHT22;269;48.884;9.192;2023-04-19T05:21:25;10.20;99.90
569;DHT22;269;48.884;9.192;2023-04-19T05:23:53;10.20;99.90
569;DHT22;269;48.884;9.192;2023-04-19T05:26:21;10.30;99.90
569;DHT22;269;48.884;9.192;2023-04-19T05:28:48;10.30;99.90
569;DHT22;269;48.884;9.192;2023-04-19T05:31:15;10.40;99.90
569;DHT22;269;48.884;9.192;2023-04-19T05:33:43;10.40;99.90
569;DHT22;269;48.884;9.192;2023-04-19T05:36:10;10.40;99.90
569;DHT22;269;48.884;9.192;2023-04-19T05:38:37;10.50;99.90
569;DHT22;269;48.884;9.192;2023-04-19T05:41:05;10.50;99.90
569;DHT22;269;48.884;9.192;2023-04-19T05:43:32;10.50;99.90
569;DHT22;269;48.884;9.192;2023-04-19T05:45:59;10.50;99.90
569;DHT22;269;48.884;9.192;2023-04-19T05:48:26;10.50;99.90
569;DHT22;269;48.884;9.192;2023-04-19T05:50:54;10.60;99.90
569;DHT22;269;48.884;9.192;2023-04-19T05:53:22;10.60;99.90
569;DHT22;269;48.884;9.192;2023-04-19T05:55:49;10.60;99.90
569;DHT22;269;48.884;9.192;2023-04-19T05:58:18;10.60;99.90
569;DHT22;269;48.884;9.192;2023-04-19T06:00:45;10.70;99.90
569;DHT22;269;48.884;9.192;2023-04-19T06:03:14;10.70;99.90
569;DHT22;269;48.884;9.192;2023-04-19T06:05:40;10.80;99.90
569;DHT22;269;48.884;9.192;2023-04-19T06:08:08;10.90;99.90
569;DHT22;269;48.884;9.192;2023-04-19T06:10:36;10.90;99.90
569;DHT22;269;48.884;9.192;2023-04-19T06:13:03;11.00;99.90
569;DHT22;269;48.884;9.192;2023-04-19T06:15:31;11.00;99.90
569;DHT22;269;48.884;9.192;2023-04-19T06:17:58;11.10;99.90
569;DHT22;269;48.884;9.192;2023-04-19T06:20:25;11.20;99.90
569;DHT22;269;48.884;9.192;2023-04-19T06:22:52;11.30;99.90
569;DHT22;269;48.884;9.192;2023-04-19T06:25:19;11.40;99.90
569;DHT22;269;48.884;9.192;2023-04-19T06:27:47;11.50;99.90
569;DHT22;269;48.884;9.192;2023-04-19T06:30:14;11.60;99.90
569;DHT22;269;48.884;9.192;2023-04-19T06:32:43;11.70;99.90
569;DHT22;269;48.884;9.192;2023-04-19T06:35:09;11.80;99.90
569;DHT22;269;48.884;9.192;2023-04-19T06:37:36;11.80;99.90
569;DHT22;269;48.884;9.192;2023-04-19T06:40:05;12.20;99.90
569;DHT22;269;48.884;9.192;2023-04-19T06:42:33;12.10;99.90
569;DHT22;269;48.884;9.192;2023-04-19T06:45:00;12.20;99.90
569;DHT22;269;48.884;9.192;2023-04-19T06:47:28;12.20;99.90
569;DHT22;269;48.884;9.192;2023-04-19T06:49:57;12.20;99.90
569;DHT22;269;48.884;9.192;2023-04-19T06:52:24;12.30;99.90
569;DHT22;269;48.884;9.192;2023-04-19T06:54:51;12.30;99.90
569;DHT22;269;48.884;9.192;2023-04-19T06:57:18;12.50;99.90
569;DHT22;269;48.884;9.192;2023-04-19T06:59:45;12.50;99.90
569;DHT22;269;48.884;9.192;2023-04-19T07:02:12;12.50;99.90
569;DHT22;269;48.884;9.192;2023-04-19T07:04:39;12.60;99.90
569;DHT22;269;48.884;9.192;2023-04-19T07:07:07;12.60;99.90
569;DHT22;269;48.884;9.192;2023-04-19T07:09:34;12.70;99.90
569;DHT22;269;48.884;9.192;2023-04-19T07:12:01;12.80;99.90
569;DHT22;269;48.884;9.192;2023-04-19T07:14:28;12.90;99.90
569;DHT22;269;48.884;9.192;2023-04-19T07:16:56;13.00;99.90
569;DHT22;269;48.884;9.192;2023-04-19T07:19:23;13.20;99.90
569;DHT22;269;48.884;9.192;2023-04-19T07:21:51;13.30;99.90
569;DHT22;269;48.884;9.192;2023-04-19T07:24:19;13.40;99.90
569;DHT22;269;48.884;9.192;2023-04-19T07:26:46;13.50;99.90
569;DHT22;269;48.884;9.192;2023-04-19T07:29:13;13.60;99.90
569;DHT22;269;48.884;9.192;2023-04-19T07:31:40;13.70;99.90
569;DHT22;269;48.884;9.192;2023-04-19T07:34:07;13.90;99.90
569;DHT22;269;48.884;9.192;2023-04-19T07:36:35;14.20;99.90
569;DHT22;269;48.884;9.192;2023-04-19T07:39:02;14.40;99.90
569;DHT22;269;48.884;9.192;2023-04-19T07:41:32;14.60;99.90
569;DHT22;269;48.884;9.192;2023-04-19T07:43:59;14.70;99.90
569;DHT22;269;48.884;9.192;2023-04-19T07:46:26;14.80;99.90
569;DHT22;269;48.884;9.192;2023-04-19T07:48:54;14.90;99.90
569;DHT22;269;48.884;9.192;2023-04-19T07:51:21;15.10;99.90
569;DHT22;269;48.884;9.192;2023-04-19T07:53:49;15.20;99.90
569;DHT22;269;48.884;9.192;2023-04-19T07:56:16;14.90;99.90
569;DHT22;269;48.884;9.192;2023-04-19T07:58:46;14.90;99.90
569;DHT22;269;48.884;9.192;2023-04-19T08:01:13;15.10;99.90
569;DHT22;269;48.884;9.192;2023-04-19T08:03:40;15.20;99.90
569;DHT22;269;48.884;9.192;2023-04-19T08:06:07;15.30;99.90
569;DHT22;269;48.884;9.192;2023-04-19T08:08:35;15.40;99.90
569;DHT22;269;48.884;9.192;2023-04-19T08:11:02;15.30;99.90
569;DHT22;269;48.884;9.192;2023-04-19T08:13:29;15.30;99.90
569;DHT22;269;48.884;9.192;2023-04-19T08:15:58;15.30;99.90
569;DHT22;269;48.884;9.192;2023-04-19T08:18:25;15.20;99.90
569;DHT22;269;48.884;9.192;2023-04-19T08:20:52;15.10;99.90
569;DHT22;269;48.884;9.192;2023-04-19T08:23:21;14.90;99.90
569;DHT22;269;48.884;9.192;2023-04-19T08:25:48;14.80;99.90
569;DHT22;269;48.884;9.192;2023-04-19T08:28:15;14.90;99.90
569;DHT22;269;48.884;9.192;2023-04-19T08:30:43;14.50;99.90
569;DHT22;269;48.884;9.192;2023-04-19T08:33:11;14.40;99.90
569;DHT22;269;48.884;9.192;2023-04-19T08:35:38;14.30;99.90
569;DHT22;269;48.884;9.192;2023-04-19T08:38:06;14.20;99.90
569;DHT22;269;48.884;9.192;2023-04-19T08:40:33;14.20;99.90
569;DHT22;269;48.884;9.192;2023-04-19T08:43:04;14.10;99.90
569;DHT22;269;48.884;9.192;2023-04-19T08:45:32;14.10;99.90
569;DHT22;269;48.884;9.192;2023-04-19T08:48:01;14.10;99.90
569;DHT22;269;48.884;9.192;2023-04-19T08:50:30;14.10;99.90
569;DHT22;269;48.884;9.192;2023-04-19T08:52:58;14.20;99.90
569;DHT22;269;48.884;9.192;2023-04-19T08:55:27;14.30;99.90
569;DHT22;269;48.884;9.192;2023-04-19T08:57:55;14.40;99.90
569;DHT22;269;48.884;9.192;2023-04-19T09:00:23;14.50;99.90
569;DHT22;269;48.884;9.192;2023-04-19T09:02:53;14.50;99.90
569;DHT22;269;48.884;9.192;2023-04-19T09:05:20;14.50;99.90
569;DHT22;269;48.884;9.192;2023-04-19T09:07:49;14.40;99.90
569;DHT22;269;48.884;9.192;2023-04-19T09:10:17;14.40;99.90
569;DHT22;269;48.884;9.192;2023-04-19T09:12:59;14.40;99.90
569;DHT22;269;48.884;9.192;2023-04-19T09:15:36;14.50;99.90
569;DHT22;269;48.884;9.192;2023-04-19T09:18:04;14.60;99.90
569;DHT22;269;48.884;9.192;2023-04-19T09:20:36;14.70;99.90
569;DHT22;269;48.884;9.192;2023-04-19T09:23:05;14.80;99.90
569;DHT22;269;48.884;9.192;2023-04-19T09:25:33;15.20;99.90
569;DHT22;269;48.884;9.192;2023-04-19T09:28:10;15.30;99.90
569;DHT22;269;48.884;9.192;2023-04-19T09:30:39;15.70;99.90
569;DHT22;269;48.884;9.192;2023-04-19T09:33:07;16.10;99.90
569;DHT22;269;48.884;9.192;2023-04-19T09:35:41;16.50;99.90
569;DHT22;269;48.884;9.192;2023-04-19T09:38:10;16.80;99.90
569;DHT22;269;48.884;9.192;2023-04-19T09:40:39;17.00;99.90
569;DHT22;269;48.884;9.192;2023-04-19T09:43:07;17.20;99.90
569;DHT22;269;48.884;9.192;2023-04-19T09:45:40;17.30;99.90
569;DHT22;269;48.884;9.192;2023-04-19T09:48:09;17.40;99.90
569;DHT22;269;48.884;9.192;2023-04-19T09:50:50;17.40;99.90
569;DHT22;269;48.884;9.192;2023-04-19T09:53:18;17.30;99.90
569;DHT22;269;48.884;9.192;2023-04-19T09:55:46;17.20;99.90
569;DHT22;269;48.884;9.192;2023-04-19T09:58:13;17.10;99.90
569;DHT22;269;48.884;9.192;2023-04-19T10:00:43;17.00;99.90
569;DHT22;269;48.884;9.192;2023-04-19T10:03:13;16.90;99.90
569;DHT22;269;48.884;9.192;2023-04-19T10:05:42;16.70;99.90
569;DHT22;269;48.884;9.192;2023-04-19T10:08:10;16.60;99.90
569;DHT22;269;48.884;9.192;2023-04-19T10:10:40;16.50;99.90
569;DHT22;269;48.884;9.192;2023-04-19T10:13:09;16.30;99.90
569;DHT22;269;48.884;9.192;2023-04-19T10:15:38;15.90;99.90
569;DHT22;269;48.884;9.192;2023-04-19T10:18:07;15.60;99.90
569;DHT22;269;48.884;9.192;2023-04-19T10:20:38;15.40;99.90
569;DHT22;269;48.884;9.192;2023-04-19T10:23:07;15.20;99.90
569;DHT22;269;48.884;9.192;2023-04-19T10:25:36;15.30;99.90
569;DHT22;269;48.884;9.192;2023-04-19T10:28:05;15.00;99.90
569;DHT22;269;48.884;9.192;2023-04-19T10:30:32;14.90;99.90
569;DHT22;269;48.884;9.192;2023-04-19T10:33:00;14.90;99.90
569;DHT22;269;48.884;9.192;2023-04-19T10:35:33;14.90;99.90
569;DHT22;269;48.884;9.192;2023-04-19T10:38:07;14.90;99.90
569;DHT22;269;48.884;9.192;2023-04-19T10:40:56;15.00;99.90
569;DHT22;269;48.884;9.192;2023-04-19T10:43:27;15.10;99.90
569;DHT22;269;48.884;9.192;2023-04-19T10:45:58;15.10;99.90
569;DHT22;269;48.884;9.192;2023-04-19T10:48:40;15.10;99.90
569;DHT22;269;48.884;9.192;2023-04-19T10:51:13;15.10;99.90
569;DHT22;269;48.884;9.192;2023-04-19T10:53:55;15.10;99.90
569;DHT22;269;48.884;9.192;2023-04-19T10:56:55;15.00;99.90
569;DHT22;269;48.884;9.192;2023-04-19T10:59:25;14.90;99.90
569;DHT22;269;48.884;9.192;2023-04-19T11:01:56;14.80;99.90
569;DHT22;269;48.884;9.192;2023-04-19T11:07:38;14.60;99.90
569;DHT22;269;48.884;9.192;2023-04-19T11:10:08;14.50;99.90
569;DHT22;269;48.884;9.192;2023-04-19T11:12:36;14.40;99.90
569;DHT22;269;48.884;9.192;2023-04-19T11:15:05;14.30;99.90
569;DHT22;269;48.884;9.192;2023-04-19T11:17:34;14.20;99.90
569;DHT22;269;48.884;9.192;2023-04-19T11:20:04;14.10;99.90
569;DHT22;269;48.884;9.192;2023-04-19T11:22:34;14.10;99.90
569;DHT22;269;48.884;9.192;2023-04-19T11:25:09;13.90;99.90
569;DHT22;269;48.884;9.192;2023-04-19T11:27:37;13.80;99.90
569;DHT22;269;48.884;9.192;2023-04-19T11:30:08;13.70;99.90
569;DHT22;269;48.884;9.192;2023-04-19T11:32:36;13.50;99.90
569;DHT22;269;48.884;9.192;2023-04-19T11:35:04;13.40;99.90
569;DHT22;269;48.884;9.192;2023-04-19T11:37:32;13.30;99.90
569;DHT22;269;48.884;9.192;2023-04-19T11:40:00;13.20;99.90
569;DHT22;269;48.884;9.192;2023-04-19T11:42:27;13.20;99.90
569;DHT22;269;48.884;9.192;2023-04-19T11:44:54;13.40;99.90
569;DHT22;269;48.884;9.192;2023-04-19T11:47:24;13.10;99.90
569;DHT22;269;48.884;9.192;2023-04-19T11:49:53;13.10;99.90
569;DHT22;269;48.884;9.192;2023-04-19T11:52:22;13.20;99.90
569;DHT22;269;48.884;9.192;2023-04-19T11:54:50;13.00;99.90
569;DHT22;269;48.884;9.192;2023-04-19T11:57:26;12.90;99.90
569;DHT22;269;48.884;9.192;2023-04-19T12:00:06;12.80;99.90
569;DHT22;269;48.884;9.192;2023-04-19T12:02:38;12.70;99.90
569;DHT22;269;48.884;9.192;2023-04-19T12:05:07;12.60;99.90
569;DHT22;269;48.884;9.192;2023-04-19T12:07:34;12.50;99.90
569;DHT22;269;48.884;9.192;2023-04-19T12:10:07;12.40;99.90
569;DHT22;269;48.884;9.192;2023-04-19T12:12:36;12.30;99.90
569;DHT22;269;48.884;9.192;2023-04-19T12:15:04;12.20;99.90
569;DHT22;269;48.884;9.192;2023-04-19T12:17:31;12.10;99.90
569;DHT22;269;48.884;9.192;2023-04-19T12:19:59;12.10;99.90
569;DHT22;269;48.884;9.192;2023-04-19T12:22:26;12.00;99.90
569;DHT22;269;48.884;9.192;2023-04-19T12:24:53;12.00;99.90
569;DHT22;269;48.884;9.192;2023-04-19T12:27:21;12.00;99.90
569;DHT22;269;48.884;9.192;2023-04-19T12:29:48;12.00;99.90
569;DHT22;269;48.884;9.192;2023-04-19T12:32:15;11.90;99.90
569;DHT22;269;48.884;9.192;2023-04-19T12:34:43;11.90;99.90
569;DHT22;269;48.884;9.192;2023-04-19T12:37:11;12.20;99.90
569;DHT22;269;48.884;9.192;2023-04-19T12:39:39;11.90;99.90
569;DHT22;269;48.884;9.192;2023-04-19T12:42:06;11.90;99.90
569;DHT22;269;48.884;9.192;2023-04-19T12:44:33;11.90;99.90
569;DHT22;269;48.884;9.192;2023-04-19T12:47:00;12.00;99.90
569;DHT22;269;48.884;9.192;2023-04-19T12:49:27;12.00;99.90
569;DHT22;269;48.884;9.192;2023-04-19T12:51:55;12.00;99.90
569;DHT22;269;48.884;9.192;2023-04-19T12:54:23;12.00;99.90
569;DHT22;269;48.884;9.192;2023-04-19T12:56:50;12.00;99.90
569;DHT22;269;48.884;9.192;2023-04-19T12:59:17;12.10;99.90
569;DHT22;269;48.884;9.192;2023-04-19T13:01:44;12.10;99.90
569;DHT22;269;48.884;9.192;2023-04-19T13:04:11;12.00;99.90
569;DHT22;269;48.884;9.192;2023-04-19T13:06:39;12.00;99.90
569;DHT22;269;48.884;9.192;2023-04-19T13:09:06;12.00;99.90
569;DHT22;269;48.884;9.192;2023-04-19T13:11:34;11.90;99.90
569;DHT22;269;48.884;9.192;2023-04-19T13:14:01;11.90;99.90
569;DHT22;269;48.884;9.192;2023-04-19T13:16:28;11.80;99.90
569;DHT22;269;48.884;9.192;2023-04-19T13:18:56;11.80;99.90
569;DHT22;269;48.884;9.192;2023-04-19T13:21:22;11.80;99.90
569;DHT22;269;48.884;9.192;2023-04-19T13:23:50;11.90;99.90
569;DHT22;269;48.884;9.192;2023-04-19T13:26:18;11.90;99.90
569;DHT22;269;48.884;9.192;2023-04-19T13:28:46;12.00;99.90
569;DHT22;269;48.884;9.192;2023-04-19T13:31:13;12.00;99.90
569;DHT22;269;48.884;9.192;2023-04-19T13:33:40;12.10;99.90
569;DHT22;269;48.884;9.192;2023-04-19T13:36:07;12.20;99.90
569;DHT22;269;48.884;9.192;2023-04-19T13:38:34;12.30;99.90
569;DHT22;269;48.884;9.192;2023-04-19T13:41:03;12.30;99.90
569;DHT22;269;48.884;9.192;2023-04-19T13:43:30;12.40;99.90
569;DHT22;269;48.884;9.192;2023-04-19T13:45:58;12.40;99.90
569;DHT22;269;48.884;9.192;2023-04-19T13:48:25;12.50;99.90
569;DHT22;269;48.884;9.192;2023-04-19T13:50:54;12.50;99.90
569;DHT22;269;48.884;9.192;2023-04-19T13:53:21;12.60;99.90
569;DHT22;269;48.884;9.192;2023-04-19T13:55:50;12.70;99.90
569;DHT22;269;48.884;9.192;2023-04-19T13:58:17;12.90;99.90
569;DHT22;269;48.884;9.192;2023-04-19T14:00:44;13.30;99.90
569;DHT22;269;48.884;9.192;2023-04-19T14:03:14;13.60;99.90
569;DHT22;269;48.884;9.192;2023-04-19T14:05:41;13.90;99.90
569;DHT22;269;48.884;9.192;2023-04-19T14:08:08;14.10;99.90
569;DHT22;269;48.884;9.192;2023-04-19T14:10:36;14.20;99.90
569;DHT22;269;48.884;9.192;2023-04-19T14:13:03;14.30;99.90
569;DHT22;269;48.884;9.192;2023-04-19T14:15:30;14.10;99.90
569;DHT22;269;48.884;9.192;2023-04-19T14:17:58;14.40;99.90
569;DHT22;269;48.884;9.192;2023-04-19T14:20:28;14.50;99.90
569;DHT22;269;48.884;9.192;2023-04-19T14:22:55;14.50;99.90
569;DHT22;269;48.884;9.192;2023-04-19T14:25:24;14.50;99.90
569;DHT22;269;48.884;9.192;2023-04-19T14:27:51;14.50;99.90
569;DHT22;269;48.884;9.192;2023-04-19T14:30:18;14.50;99.90
569;DHT22;269;48.884;9.192;2023-04-19T14:32:46;14.50;99.90
569;DHT22;269;48.884;9.192;2023-04-19T14:35:13;14.50;99.90
569;DHT22;269;48.884;9.192;2023-04-19T14:37:41;14.40;99.90
569;DHT22;269;48.884;9.192;2023-04-19T14:40:09;14.30;99.90
569;DHT22;269;48.884;9.192;2023-04-19T14:42:36;14.20;99.90
569;DHT22;269;48.884;9.192;2023-04-19T14:45:04;14.20;99.90
569;DHT22;269;48.884;9.192;2023-04-19T14:47:31;14.00;99.90
569;DHT22;269;48.884;9.192;2023-04-19T14:49:58;13.80;99.90
569;DHT22;269;48.884;9.192;2023-04-19T14:52:25;13.40;99.90
569;DHT22;269;48.884;9.192;2023-04-19T14:54:56;13.10;99.90
569;DHT22;269;48.884;9.192;2023-04-19T14:57:24;12.80;99.90
569;DHT22;269;48.884;9.192;2023-04-19T14:59:53;12.60;99.90
569;DHT22;269;48.884;9.192;2023-04-19T15:02:22;12.70;99.90
569;DHT22;269;48.884;9.192;2023-04-19T15:04:50;12.80;99.90
569;DHT22;269;48.884;9.192;2023-04-19T15:07:17;13.20;99.90
569;DHT22;269;48.884;9.192;2023-04-19T15:09:45;13.50;99.90
569;DHT22;269;48.884;9.192;2023-04-19T15:12:13;13.60;99.90
569;DHT22;269;48.884;9.192;2023-04-19T15:14:40;13.50;99.90
569;DHT22;269;48.884;9.192;2023-04-19T15:17:07;13.10;99.90
569;DHT22;269;48.884;9.192;2023-04-19T15:19:34;12.90;99.90
569;DHT22;269;48.884;9.192;2023-04-19T15:22:01;12.70;99.90
569;DHT22;269;48.884;9.192;2023-04-19T15:24:29;12.80;99.90
569;DHT22;269;48.884;9.192;2023-04-19T15:26:57;12.60;99.90
569;DHT22;269;48.884;9.192;2023-04-19T15:29:26;12.60;99.90
569;DHT22;269;48.884;9.192;2023-04-19T15:31:53;12.50;99.90
569;DHT22;269;48.884;9.192;2023-04-19T15:34:20;12.40;99.90
569;DHT22;269;48.884;9.192;2023-04-19T15:36:47;12.40;99.90
569;DHT22;269;48.884;9.192;2023-04-19T15:39:14;12.30;99.90
569;DHT22;269;48.884;9.192;2023-04-19T15:41:41;12.50;99.90
569;DHT22;269;48.884;9.192;2023-04-19T15:44:08;12.60;99.90
569;DHT22;269;48.884;9.192;2023-04-19T15:46:37;12.90;99.90
569;DHT22;269;48.884;9.192;2023-04-19T15:49:03;13.40;99.90
569;DHT22;269;48.884;9.192;2023-04-19T15:51:30;13.80;99.90
569;DHT22;269;48.884;9.192;2023-04-19T15:53:58;14.20;99.90
569;DHT22;269;48.884;9.192;2023-04-19T15:56:25;14.70;99.90
569;DHT22;269;48.884;9.192;2023-04-19T15:58:52;15.50;99.90
569;DHT22;269;48.884;9.192;2023-04-19T16:01:19;16.40;99.90
569;DHT22;269;48.884;9.192;2023-04-19T16:03:48;17.40;99.90
569;DHT22;269;48.884;9.192;2023-04-19T16:06:15;18.10;99.90
569;DHT22;269;48.884;9.192;2023-04-19T16:08:43;18.80;99.90
569;DHT22;269;48.884;9.192;2023-04-19T16:11:10;19.10;99.90
569;DHT22;269;48.884;9.192;2023-04-19T16:13:37;19.70;99.90
569;DHT22;269;48.884;9.192;2023-04-19T16:16:05;20.10;99.90
569;DHT22;269;48.884;9.192;2023-04-19T16:18:32;20.40;99.90
569;DHT22;269;48.884;9.192;2023-04-19T16:21:01;20.60;99.50
569;DHT22;269;48.884;9.192;2023-04-19T16:23:29;21.10;99.00
569;DHT22;269;48.884;9.192;2023-04-19T16:25:56;20.90;96.50
569;DHT22;269;48.884;9.192;2023-04-19T16:28:23;21.70;95.00
569;DHT22;269;48.884;9.192;2023-04-19T16:30:50;21.90;91.80
569;DHT22;269;48.884;9.192;2023-04-19T16:33:17;21.90;81.60
569;DHT22;269;48.884;9.192;2023-04-19T16:35:45;21.70;79.30
569;DHT22;269;48.884;9.192;2023-04-19T16:38:13;21.50;76.00
569;DHT22;269;48.884;9.192;2023-04-19T16:40:40;20.90;72.10
569;DHT22;269;48.884;9.192;2023-04-19T16:43:09;20.20;70.40